Time;durP1;ratioP1;P1;durP2;ratioP2;P2;SDS_P1;SDS_P2;PMS_P1;PMS_P2;Temp;Humidity;BMP_temperature;BMP_pressure;BME280_temperature;BME280_humidity;BME280_pressure;Samples;Min_cycle;Max_cycle;Signal;HPM_P1;HPM_P2
2020/12/20 00:01:56;;;;;;;0.10;0.00;;;;;;;3.90;100.00;98727.22;4870283;29;20453;-81
2020/12/20 00:04:59;;;;;;;0.10;0.00;;;;;;;3.79;100.00;98716.63;4879524;29;20101;-80
2020/12/20 00:08:02;;;;;;;0.10;0.00;;;;;;;3.78;100.00;98728.91;4879130;29;20467;-81
2020/12/20 00:11:05;;;;;;;0.20;0.20;;;;;;;3.74;100.00;98731.03;4879503;29;20422;-81
2020/12/20 00:14:27;;;;;;;0.10;0.10;;;;;;;3.66;100.00;98727.06;4879323;29;20052;-80
2020/12/20 00:17:30;;;;;;;0.10;0.10;;;;;;;3.60;100.00;98720.59;4879470;29;20521;-80
2020/12/20 00:20:32;;;;;;;0.10;0.10;;;;;;;3.65;100.00;98725.50;4867602;29;20529;-80
2020/12/20 00:23:35;;;;;;;0.10;0.10;;;;;;;3.62;100.00;98731.91;4883226;29;20056;-80
2020/12/20 00:26:42;;;;;;;0.10;0.10;;;;;;;3.62;100.00;98731.91;4883457;29;20172;-81
2020/12/20 00:29:45;;;;;;;0.10;0.10;;;;;;;3.62;100.00;98731.91;4882585;29;20513;-80
2020/12/20 00:32:50;;;;;;;0.10;0.10;;;;;;;3.52;100.00;98731.13;4882408;29;20113;-80
2020/12/20 00:35:53;;;;;;;0.10;0.10;;;;;;;3.45;100.00;98733.41;4882316;29;20422;-80
2020/12/20 00:38:56;;;;;;;0.10;0.10;;;;;;;3.39;100.00;98729.72;4882541;29;20574;-81
2020/12/20 00:42:02;;;;;;;0.10;0.10;;;;;;;3.43;100.00;98735.84;4882215;29;20083;-80
2020/12/20 00:45:05;;;;;;;0.65;0.65;;;;;;;3.45;100.00;98738.91;4882512;29;20059;-81
2020/12/20 00:48:07;;;;;;;0.17;0.17;;;;;;;3.44;100.00;98745.66;4882202;29;20105;-81
2020/12/20 00:51:10;;;;;;;0.10;0.10;;;;;;;3.39;100.00;98752.50;4882344;29;20625;-80
2020/12/20 00:54:13;;;;;;;0.10;0.10;;;;;;;3.26;100.00;98754.59;4882176;29;21105;-81
2020/12/20 00:57:16;;;;;;;0.10;0.10;;;;;;;3.19;100.00;98767.84;4881702;29;20104;-80
2020/12/20 01:00:18;;;;;;;0.10;0.10;;;;;;;3.17;100.00;98757.31;4863337;29;20093;-80
2020/12/20 01:03:22;;;;;;;0.10;0.10;;;;;;;3.13;100.00;98758.66;4863743;29;20411;-81
2020/12/20 01:06:25;;;;;;;0.10;0.10;;;;;;;3.21;100.00;98762.66;4863358;29;20048;-80
2020/12/20 01:09:28;;;;;;;0.10;0.10;;;;;;;3.28;100.00;98767.91;4862969;29;20051;-81
2020/12/20 01:12:32;;;;;;;0.10;0.10;;;;;;;3.25;100.00;98761.31;4851560;29;20075;-82
2020/12/20 01:15:35;;;;;;;0.10;0.10;;;;;;;3.32;100.00;98754.75;4863085;29;20074;-82
2020/12/20 01:18:37;;;;;;;0.10;0.10;;;;;;;3.38;100.00;98755.72;4862984;29;20052;-82
2020/12/20 01:21:40;;;;;;;0.10;0.10;;;;;;;3.33;100.00;98761.81;4862679;29;20183;-82
2020/12/20 01:24:43;;;;;;;0.10;0.10;;;;;;;3.28;100.00;98763.16;4862755;29;20487;-83
2020/12/20 01:27:46;;;;;;;0.10;0.10;;;;;;;3.27;100.00;98760.88;4862850;29;20074;-82
2020/12/20 01:30:49;;;;;;;0.10;0.10;;;;;;;3.25;100.00;98768.81;4863049;29;20051;-81
2020/12/20 01:33:52;;;;;;;0.10;0.10;;;;;;;3.34;100.00;98766.06;4862121;29;20125;-82
2020/12/20 01:36:56;;;;;;;0.10;0.10;;;;;;;3.42;100.00;98762.59;4851530;29;20056;-81
2020/12/20 01:39:59;;;;;;;0.10;0.10;;;;;;;3.41;100.00;98760.31;4862712;29;20089;-79
2020/12/20 01:43:02;;;;;;;0.10;0.00;;;;;;;3.43;100.00;98752.34;4861565;29;20055;-80
2020/12/20 01:46:08;;;;;;;0.10;0.00;;;;;;;3.48;100.00;98755.28;4862346;29;20085;-79
2020/12/20 01:49:11;;;;;;;0.10;0.10;;;;;;;3.64;100.00;98757.00;4850716;29;20080;-79
2020/12/20 01:52:15;;;;;;;0.10;0.10;;;;;;;3.84;100.00;98762.84;4860981;29;20056;-79
2020/12/20 01:55:21;;;;;;;0.10;0.10;;;;;;;3.92;100.00;98761.31;4863052;29;20454;-80
2020/12/20 01:58:26;;;;;;;0.10;0.00;;;;;;;3.88;100.00;98766.22;4867358;29;20093;-79
2020/12/20 02:01:28;;;;;;;0.10;0.10;;;;;;;3.85;100.00;98780.91;4880783;29;20101;-80
2020/12/20 02:04:31;;;;;;;0.10;0.00;;;;;;;3.92;100.00;98788.88;4880239;29;20104;-80
2020/12/20 02:07:35;;;;;;;0.10;0.10;;;;;;;3.85;100.00;98789.19;4880272;29;20485;-80
2020/12/20 02:10:38;;;;;;;0.10;0.10;;;;;;;3.76;100.00;98800.16;4881066;29;20172;-80
2020/12/20 02:13:46;;;;;;;0.10;0.10;;;;;;;3.75;100.00;98799.41;4880910;29;20383;-80
2020/12/20 02:16:49;;;;;;;0.10;0.10;;;;;;;3.77;100.00;98809.94;4880490;29;20101;-79
2020/12/20 02:19:52;;;;;;;0.10;0.10;;;;;;;3.78;100.00;98808.75;4880545;29;20128;-80
2020/12/20 02:22:56;;;;;;;0.10;0.00;;;;;;;3.71;100.00;98811.78;4880868;29;20097;-79
2020/12/20 02:25:59;;;;;;;0.10;0.10;;;;;;;3.70;100.00;98821.28;4881553;29;20047;-79
2020/12/20 02:29:02;;;;;;;0.10;0.10;;;;;;;3.63;100.00;98811.31;4880522;29;20099;-79
2020/12/20 02:32:05;;;;;;;0.10;0.10;;;;;;;3.69;100.00;98808.72;4880583;29;20104;-79
2020/12/20 02:35:07;;;;;;;0.15;0.15;;;;;;;3.71;100.00;98818.06;4880581;29;20044;-80
2020/12/20 02:38:11;;;;;;;0.10;0.10;;;;;;;3.69;100.00;98819.72;4880326;29;20055;-80
2020/12/20 02:41:17;;;;;;;0.10;0.00;;;;;;;3.74;100.00;98821.88;4880178;29;20082;-80
2020/12/20 02:44:21;;;;;;;0.10;0.10;;;;;;;3.76;100.00;98811.97;4880176;29;20537;-79
2020/12/20 02:47:24;;;;;;;0.10;0.10;;;;;;;3.76;100.00;98813.94;4879844;29;20441;-80
2020/12/20 02:50:27;;;;;;;0.10;0.10;;;;;;;3.74;100.00;98810.88;4880056;29;20067;-80
2020/12/20 02:53:31;;;;;;;0.40;0.40;;;;;;;3.67;100.00;98822.94;4880312;29;20566;-79
2020/12/20 02:56:34;;;;;;;0.10;0.10;;;;;;;3.64;100.00;98825.81;4879920;29;20076;-80
2020/12/20 02:59:37;;;;;;;0.13;0.10;;;;;;;3.60;100.00;98834.22;4879853;29;20052;-80
2020/12/20 03:02:40;;;;;;;0.10;0.10;;;;;;;3.57;100.00;98834.38;4879746;29;20072;-79
2020/12/20 03:05:43;;;;;;;0.10;0.10;;;;;;;3.52;100.00;98834.97;4879798;29;20059;-79
2020/12/20 03:08:46;;;;;;;0.10;0.10;;;;;;;3.48;100.00;98834.34;4879792;29;20116;-80
2020/12/20 03:11:48;;;;;;;0.10;0.10;;;;;;;3.49;100.00;98833.09;4878859;29;20774;-80
2020/12/20 03:14:51;;;;;;;0.10;0.10;;;;;;;3.56;100.00;98841.84;4879679;29;20052;-80
2020/12/20 03:17:54;;;;;;;0.10;0.00;;;;;;;3.70;100.00;98838.53;4879533;29;20490;-80
2020/12/20 03:20:57;;;;;;;0.10;0.10;;;;;;;3.69;100.00;98844.50;4879416;29;20100;-79
2020/12/20 03:24:01;;;;;;;0.10;0.10;;;;;;;3.69;100.00;98853.53;4879163;29;20065;-80
2020/12/20 03:27:04;;;;;;;0.10;0.10;;;;;;;3.70;100.00;98848.81;4878931;29;20512;-80
2020/12/20 03:30:07;;;;;;;0.10;0.10;;;;;;;3.63;100.00;98852.59;4878706;29;20471;-80
2020/12/20 03:33:10;;;;;;;0.10;0.00;;;;;;;3.60;100.00;98849.97;4879263;29;20048;-80
2020/12/20 03:36:12;;;;;;;0.10;0.10;;;;;;;3.55;100.00;98853.31;4879069;29;20051;-80
2020/12/20 03:39:16;;;;;;;0.10;0.10;;;;;;;3.48;100.00;98848.09;4878087;29;20100;-80
2020/12/20 03:42:19;;;;;;;0.10;0.00;;;;;;;3.43;100.00;98863.19;4878951;29;20067;-80
2020/12/20 03:45:22;;;;;;;0.10;0.10;;;;;;;3.46;100.00;98853.28;4878786;29;20091;-80
2020/12/20 03:48:26;;;;;;;0.10;0.00;;;;;;;3.43;100.00;98845.91;4878945;29;20131;-80
2020/12/20 03:51:29;;;;;;;0.10;0.10;;;;;;;3.43;100.00;98856.94;4878957;29;20177;-79
2020/12/20 03:54:32;;;;;;;0.85;0.85;;;;;;;3.44;100.00;98853.75;4878167;29;20105;-80
2020/12/20 03:57:35;;;;;;;0.10;0.10;;;;;;;3.49;100.00;98844.09;4878855;29;20426;-79
2020/12/20 04:00:39;;;;;;;0.30;0.20;;;;;;;3.56;100.00;98855.63;4860506;29;20045;-80
2020/12/20 04:03:42;;;;;;;0.10;0.10;;;;;;;3.68;100.00;98842.97;4860040;29;20132;-79
2020/12/20 04:06:45;;;;;;;0.10;0.10;;;;;;;3.76;100.00;98830.47;4860208;29;20060;-79
2020/12/20 04:09:48;;;;;;;0.10;0.10;;;;;;;3.82;100.00;98845.16;4860166;29;20460;-79
2020/12/20 04:12:51;;;;;;;0.10;0.10;;;;;;;3.90;100.00;98851.16;4859864;29;20128;-79
2020/12/20 04:15:54;;;;;;;0.10;0.10;;;;;;;3.87;100.00;98847.31;4859894;29;20154;-79
2020/12/20 04:18:56;;;;;;;0.20;0.20;;;;;;;3.84;100.00;98859.22;4860458;29;20600;-80
2020/12/20 04:21:59;;;;;;;0.15;0.15;;;;;;;3.77;100.00;98856.75;4860075;29;20056;-79
2020/12/20 04:25:02;;;;;;;0.10;0.10;;;;;;;3.72;100.00;98862.88;4860071;29;20060;-80
2020/12/20 04:28:05;;;;;;;0.10;0.10;;;;;;;3.73;100.00;98865.16;4860066;29;20414;-80
2020/12/20 04:31:07;;;;;;;0.10;0.10;;;;;;;3.75;100.00;98870.97;4860140;29;20113;-79
2020/12/20 04:34:10;;;;;;;0.10;0.10;;;;;;;3.77;100.00;98882.31;4848691;29;20129;-79
2020/12/20 04:37:13;;;;;;;0.10;0.10;;;;;;;3.77;100.00;98887.03;4848447;29;20051;-80
2020/12/20 04:40:16;;;;;;;0.10;0.00;;;;;;;3.77;100.00;98876.03;4859857;29;20090;-80
2020/12/20 04:43:21;;;;;;;0.10;0.00;;;;;;;3.81;100.00;98876.69;4848280;29;20197;-80
2020/12/20 04:46:26;;;;;;;0.10;0.10;;;;;;;3.88;100.00;98883.91;4859896;29;20133;-79
2020/12/20 04:49:30;;;;;;;0.10;0.00;;;;;;;3.95;100.00;98878.84;4859947;29;20044;-79
2020/12/20 04:52:35;;;;;;;0.10;0.10;;;;;;;4.02;100.00;98886.84;4860099;29;20093;-79
2020/12/20 04:55:38;;;;;;;0.10;0.10;;;;;;;4.08;100.00;98879.50;4859404;29;20525;-80
2020/12/20 04:58:41;;;;;;;0.10;0.00;;;;;;;4.16;100.00;98871.72;4868986;29;20089;-80
2020/12/20 05:01:44;;;;;;;0.10;0.10;;;;;;;4.18;100.00;98878.28;4881478;29;20517;-81
2020/12/20 05:04:47;;;;;;;0.10;0.10;;;;;;;4.22;100.00;98876.16;4879581;29;20456;-82
2020/12/20 05:07:50;;;;;;;0.10;0.05;;;;;;;4.23;100.00;98874.94;4879602;29;20455;-81
2020/12/20 05:10:55;;;;;;;0.10;0.00;;;;;;;4.24;100.00;98876.50;4886836;29;20077;-81
2020/12/20 05:13:58;;;;;;;0.10;0.00;;;;;;;4.20;100.00;98873.09;4883863;29;20052;-81
2020/12/20 05:17:01;;;;;;;0.10;0.00;;;;;;;4.18;100.00;98878.28;4881716;29;20123;-82
2020/12/20 05:20:07;;;;;;;0.10;0.10;;;;;;;4.16;100.00;98869.72;4870251;29;20457;-80
2020/12/20 05:23:11;;;;;;;0.10;0.00;;;;;;;4.17;100.00;98876.78;4881453;29;20093;-82
2020/12/20 05:26:14;;;;;;;0.10;0.10;;;;;;;4.12;100.00;98885.63;4881794;29;20063;-82
2020/12/20 05:29:21;;;;;;;0.10;0.10;;;;;;;4.10;100.00;98882.56;4881258;29;20044;-82
2020/12/20 05:32:29;;;;;;;0.10;0.10;;;;;;;4.01;100.00;98879.78;4881565;29;20092;-81
2020/12/20 05:35:32;;;;;;;0.10;0.10;;;;;;;3.98;100.00;98885.44;4876639;29;20393;-83
2020/12/20 05:38:37;;;;;;;0.10;0.00;;;;;;;3.92;100.00;98888.00;4881152;29;20084;-83
2020/12/20 05:41:42;;;;;;;0.45;0.45;;;;;;;3.87;100.00;98888.63;4876962;29;20043;-83
2020/12/20 05:44:46;;;;;;;0.10;0.00;;;;;;;3.84;100.00;98903.28;4889687;29;20043;-81
2020/12/20 05:47:49;;;;;;;0.22;0.22;;;;;;;3.85;100.00;98904.84;4890496;29;20192;-82
2020/12/20 05:50:56;;;;;;;0.10;0.10;;;;;;;3.91;100.00;98916.78;4881612;29;20044;-81
2020/12/20 05:54:12;;;;;;;0.10;0.10;;;;;;;3.94;100.00;98915.91;4888763;29;20044;-79
2020/12/20 05:57:20;;;;;;;0.10;0.10;;;;;;;3.91;100.00;98907.75;4890004;29;20058;-82
2020/12/20 06:00:24;;;;;;;0.10;0.00;;;;;;;3.86;100.00;98906.34;4887616;29;20117;-81
2020/12/20 06:03:28;;;;;;;0.10;0.00;;;;;;;3.81;100.00;98904.22;4888478;29;20037;-80
2020/12/20 06:06:38;;;;;;;0.10;0.08;;;;;;;3.82;100.00;98902.97;4889288;29;20052;-81
2020/12/20 06:09:50;;;;;;;0.10;0.10;;;;;;;3.79;100.00;98906.63;4874070;29;20036;-81
2020/12/20 06:12:54;;;;;;;0.10;0.00;;;;;;;3.70;100.00;98901.84;4888003;29;20120;-80
2020/12/20 06:15:57;;;;;;;0.10;0.10;;;;;;;3.63;100.00;98904.91;4890041;29;20115;-81
2020/12/20 06:19:09;;;;;;;0.17;0.15;;;;;;;3.53;100.00;98910.81;4882416;29;20047;-82
2020/12/20 06:22:18;;;;;;;0.10;0.10;;;;;;;3.44;100.00;98913.50;4882048;29;20043;-78
2020/12/20 06:25:24;;;;;;;0.10;0.10;;;;;;;3.36;100.00;98917.72;4880664;29;20057;-82
2020/12/20 06:28:29;;;;;;;0.10;0.10;;;;;;;3.25;100.00;98917.38;4879890;29;20073;-82
2020/12/20 06:31:36;;;;;;;0.10;0.10;;;;;;;3.25;100.00;98914.63;4868770;29;20096;-81
2020/12/20 06:34:41;;;;;;;0.10;0.10;;;;;;;3.18;100.00;98915.66;4880292;29;20048;-81
2020/12/20 06:37:45;;;;;;;0.10;0.10;;;;;;;3.20;100.00;98928.94;4880538;29;20052;-81
2020/12/20 06:40:49;;;;;;;0.10;0.10;;;;;;;3.25;100.00;98925.63;4880306;29;20093;-80
2020/12/20 06:43:52;;;;;;;0.10;0.10;;;;;;;3.31;100.00;98927.34;4879886;29;20100;-80
2020/12/20 06:46:55;;;;;;;0.10;0.10;;;;;;;3.34;100.00;98928.41;4880193;29;20064;-81
2020/12/20 06:49:57;;;;;;;0.10;0.10;;;;;;;3.34;100.00;98931.94;4880120;29;20118;-80
2020/12/20 06:53:00;;;;;;;0.10;0.10;;;;;;;3.33;100.00;98937.91;4880410;29;20073;-80
2020/12/20 06:56:21;;;;;;;0.10;0.10;;;;;;;3.27;100.00;98936.94;4879689;29;20075;-82
2020/12/20 06:59:45;;;;;;;0.10;0.10;;;;;;;3.19;100.00;98946.66;4879885;29;20089;-82
2020/12/20 07:02:48;;;;;;;1.55;1.45;;;;;;;3.16;100.00;98948.34;4879736;29;20047;-81
2020/12/20 07:05:53;;;;;;;0.90;0.47;;;;;;;3.14;100.00;98956.25;4879666;29;20470;-81
2020/12/20 07:09:05;;;;;;;0.10;0.08;;;;;;;3.18;100.00;98961.63;4879968;29;20575;-81
2020/12/20 07:12:27;;;;;;;;;;;;;;;3.16;100.00;98959.34;4880474;29;20406;-84
2020/12/20 07:15:51;;;;;;;0.10;0.10;;;;;;;3.17;100.00;98971.09;4867954;29;19922;-80
2020/12/20 07:18:58;;;;;;;0.17;0.17;;;;;;;3.24;100.00;98976.34;4879613;29;20528;-80
2020/12/20 07:22:01;;;;;;;0.10;0.10;;;;;;;3.33;100.00;98968.94;4879400;29;20056;-80
2020/12/20 07:25:05;;;;;;;0.95;0.50;;;;;;;3.50;100.00;98972.25;4879479;29;20079;-80
2020/12/20 07:28:08;;;;;;;0.10;0.10;;;;;;;3.62;100.00;98974.94;4867852;29;20068;-81
2020/12/20 07:31:16;;;;;;;0.10;0.10;;;;;;;3.76;100.00;98968.13;4878739;29;20455;-80
2020/12/20 07:34:20;;;;;;;0.10;0.10;;;;;;;3.81;100.00;98973.06;4879641;29;20048;-80
2020/12/20 07:37:22;;;;;;;0.10;0.10;;;;;;;3.90;100.00;98966.81;4879336;29;20454;-80
2020/12/20 07:40:25;;;;;;;0.10;0.10;;;;;;;3.95;100.00;98969.75;4879454;29;20455;-80
2020/12/20 07:43:28;;;;;;;0.10;0.10;;;;;;;3.92;100.00;98973.41;4879201;29;20140;-80
2020/12/20 07:46:32;;;;;;;0.10;0.10;;;;;;;3.93;100.00;98971.41;4879019;29;20096;-81
2020/12/20 07:49:35;;;;;;;1.10;0.55;;;;;;;3.98;100.00;98973.59;4878806;29;20079;-81
2020/12/20 07:52:39;;;;;;;6.80;0.60;;;;;;;3.99;100.00;98970.38;4878862;29;20675;-79
2020/12/20 07:55:47;;;;;;;1.17;0.25;;;;;;;4.02;100.00;98975.00;4878548;29;20059;-80
2020/12/20 07:58:53;;;;;;;0.10;0.10;;;;;;;4.05;100.00;98976.81;4879127;29;20083;-80
2020/12/20 08:01:55;;;;;;;4.40;0.35;;;;;;;4.05;100.00;98987.84;4878990;29;20068;-80
2020/12/20 08:05:10;;;;;;;0.65;0.20;;;;;;;4.03;100.00;99001.31;4880320;29;20577;-80
2020/12/20 08:08:21;;;;;;;0.30;0.17;;;;;;;3.93;100.00;98993.44;4878542;29;20056;-81
2020/12/20 08:11:27;;;;;;;0.13;0.13;;;;;;;3.89;100.00;99003.84;4883599;29;20052;-80
2020/12/20 08:14:30;;;;;;;0.10;0.00;;;;;;;3.88;100.00;99016.81;4878546;29;20052;-80
2020/12/20 08:17:36;;;;;;;1.55;0.60;;;;;;;3.88;100.00;99014.06;4878372;29;20048;-80
2020/12/20 08:20:40;;;;;;;1.75;0.73;;;;;;;3.84;100.00;99014.22;4878490;29;20159;-81
2020/12/20 08:23:43;;;;;;;0.20;0.20;;;;;;;3.82;100.00;99019.41;4878683;29;20104;-80
2020/12/20 08:26:46;;;;;;;6.43;0.70;;;;;;;3.77;100.00;99025.50;4878834;29;20044;-78
2020/12/20 08:29:52;;;;;;;0.28;0.28;;;;;;;3.73;100.00;99024.09;4878377;29;20081;-84
2020/12/20 08:32:55;;;;;;;2.30;0.95;;;;;;;3.75;100.00;99036.19;4877909;29;20672;-82
2020/12/20 08:36:01;;;;;;;0.10;0.10;;;;;;;3.79;100.00;99039.56;4877798;29;20447;-81
2020/12/20 08:39:06;;;;;;;3.30;0.57;;;;;;;3.81;100.00;99041.91;4878013;29;20147;-81
2020/12/20 08:42:12;;;;;;;3.03;0.22;;;;;;;3.82;100.00;99049.69;4879568;29;20040;-82
2020/12/20 08:45:17;;;;;;;0.93;0.50;;;;;;;3.90;100.00;99060.47;4881098;29;20048;-82
2020/12/20 08:48:20;;;;;;;1.33;0.57;;;;;;;3.99;100.00;99058.53;4882106;29;20504;-82
2020/12/20 08:51:23;;;;;;;19.92;1.10;;;;;;;4.04;100.00;99066.22;4882210;29;20079;-82
2020/12/20 08:54:27;;;;;;;6.10;1.00;;;;;;;4.12;100.00;99064.72;4881009;29;20045;-82
2020/12/20 08:57:34;;;;;;;3.65;0.68;;;;;;;4.18;100.00;99068.41;4881832;29;20462;-82
2020/12/20 09:00:37;;;;;;;2.55;1.02;;;;;;;4.25;100.00;99068.16;4863561;29;20090;-82
2020/12/20 09:03:40;;;;;;;3.95;0.55;;;;;;;4.36;100.00;99085.06;4864781;29;20093;-80
2020/12/20 09:06:59;;;;;;;3.70;0.65;;;;;;;4.43;100.00;99081.25;4865092;29;20056;-80
2020/12/20 09:10:13;;;;;;;2.05;0.40;;;;;;;4.44;100.00;99078.03;4867451;29;20071;-79
2020/12/20 09:13:24;;;;;;;0.35;0.13;;;;;;;4.42;100.00;99083.25;4869098;29;20407;-80
2020/12/20 09:16:40;;;;;;;1.27;0.80;;;;;;;4.42;100.00;99087.97;4868709;29;20125;-79
2020/12/20 09:19:55;;;;;;;0.40;0.15;;;;;;;4.46;100.00;99085.88;4866830;29;20579;-79
2020/12/20 09:22:59;;;;;;;0.35;0.10;;;;;;;4.54;100.00;99082.38;4865994;29;20144;-80
2020/12/20 09:26:04;;;;;;;0.35;0.10;;;;;;;4.65;100.00;99086.69;4890677;29;20044;-78
2020/12/20 09:29:08;;;;;;;0.70;0.22;;;;;;;4.81;100.00;99094.75;4893438;29;20082;-79
2020/12/20 09:32:11;;;;;;;0.15;0.15;;;;;;;4.95;100.00;99094.16;4896452;29;20062;-79
2020/12/20 09:35:13;;;;;;;2.25;0.38;;;;;;;4.94;100.00;99095.38;4891350;29;20048;-79
2020/12/20 09:38:17;;;;;;;0.10;0.10;;;;;;;4.83;100.00;99093.03;4882025;29;20044;-79
2020/12/20 09:41:25;;;;;;;5.32;0.55;;;;;;;4.69;100.00;99098.34;4882952;29;20046;-79
2020/12/20 09:44:27;;;;;;;0.25;0.10;;;;;;;4.57;100.00;99103.53;4892213;29;20043;-78
2020/12/20 09:47:31;;;;;;;1.40;0.40;;;;;;;4.48;100.00;99100.72;4890007;29;20047;-80
2020/12/20 09:50:34;;;;;;;0.85;0.40;;;;;;;4.42;100.00;99099.00;4878628;29;20529;-78
2020/12/20 09:53:37;;;;;;;1.58;0.70;;;;;;;4.44;100.00;99099.34;4893001;29;20526;-81
2020/12/20 09:56:41;;;;;;;10.43;0.55;;;;;;;4.44;100.00;99100.09;4890077;29;20402;-81
2020/12/20 09:59:44;;;;;;;6.20;0.52;;;;;;;4.50;100.00;99097.53;4894920;29;20052;-81
2020/12/20 10:02:47;;;;;;;1.55;0.25;;;;;;;4.66;100.00;99104.78;4890640;29;20473;-81
2020/12/20 10:05:51;;;;;;;0.35;0.20;;;;;;;4.85;100.00;99109.16;4890738;29;20064;-81
2020/12/20 10:08:54;;;;;;;0.20;0.10;;;;;;;5.01;100.00;99103.38;4898839;29;20524;-81
2020/12/20 10:11:57;;;;;;;2.47;0.50;;;;;;;5.15;100.00;99102.78;4900193;29;20044;-81
2020/12/20 10:15:00;;;;;;;3.03;0.63;;;;;;;5.18;100.00;99104.63;4904659;29;20108;-79
2020/12/20 10:18:03;;;;;;;0.20;0.10;;;;;;;5.22;100.00;99103.25;4901983;29;20103;-79
2020/12/20 10:21:08;;;;;;;1.00;0.43;;;;;;;5.34;100.00;99109.88;4899755;29;20500;-80
2020/12/20 10:24:11;;;;;;;2.35;0.43;;;;;;;5.51;100.00;99113.88;4899412;29;20051;-80
2020/12/20 10:27:14;;;;;;;0.20;0.20;;;;;;;5.66;100.00;99125.09;4888328;29;20107;-80
2020/12/20 10:30:17;;;;;;;3.40;0.47;;;;;;;5.80;100.00;99119.72;4898786;29;20083;-80
2020/12/20 10:33:20;;;;;;;0.32;0.20;;;;;;;5.93;100.00;99123.09;4899415;29;20055;-80
2020/12/20 10:36:23;;;;;;;0.20;0.20;;;;;;;5.97;100.00;99123.75;4900269;29;20055;-80
2020/12/20 10:39:26;;;;;;;9.75;0.25;;;;;;;5.98;100.00;99130.78;4887110;29;20056;-80
2020/12/20 10:42:29;;;;;;;0.20;0.10;;;;;;;6.00;100.00;99128.31;4898899;29;20059;-80
2020/12/20 10:45:31;;;;;;;0.20;0.00;;;;;;;5.99;100.00;99121.28;4898809;29;20422;-79
2020/12/20 10:48:35;;;;;;;0.30;0.30;;;;;;;6.06;100.00;99125.72;4887044;29;20046;-80
2020/12/20 10:51:38;;;;;;;8.07;1.05;;;;;;;6.09;100.00;99119.25;4899424;29;20101;-83
2020/12/20 10:54:41;;;;;;;0.10;0.10;;;;;;;6.05;100.00;99130.47;4898297;29;20099;-82
2020/12/20 10:57:44;;;;;;;0.47;0.32;;;;;;;6.00;100.00;99127.56;4886186;29;20103;-81
2020/12/20 11:00:46;;;;;;;0.22;0.22;;;;;;;5.90;100.00;99134.31;4861255;29;20041;-82
2020/12/20 11:03:50;;;;;;;3.33;0.90;;;;;;;5.84;100.00;99131.41;4861418;29;20060;-82
2020/12/20 11:06:59;;;;;;;5.18;1.33;;;;;;;5.88;100.00;99126.50;4860760;29;20044;-81
2020/12/20 11:10:02;;;;;;;1.65;0.38;;;;;;;5.80;100.00;99125.25;4861050;29;20418;-82
2020/12/20 11:13:05;;;;;;;8.55;1.08;;;;;;;5.71;100.00;99122.50;4861138;29;20081;-83
2020/12/20 11:16:16;;;;;;;6.57;1.17;;;;;;;5.69;100.00;99119.41;4861294;29;20044;-80
2020/12/20 11:19:19;;;;;;;5.90;0.82;;;;;;;5.68;100.00;99123.41;4861582;29;20048;-82
2020/12/20 11:22:23;;;;;;;1.77;1.00;;;;;;;5.71;100.00;99130.78;4862374;29;20060;-80
2020/12/20 11:25:26;;;;;;;9.63;2.33;;;;;;;5.75;100.00;99128.63;4862593;29;20045;-80
2020/12/20 11:28:29;;;;;;;5.38;1.50;;;;;;;5.86;100.00;99128.97;4863982;29;20044;-80
2020/12/20 11:31:31;;;;;;;5.82;0.88;;;;;;;6.03;100.00;99130.19;4864298;29;20124;-80
2020/12/20 11:34:34;;;;;;;1.95;0.40;;;;;;;6.32;100.00;99131.66;4864325;29;20107;-80
2020/12/20 11:37:37;;;;;;;3.53;1.23;;;;;;;6.56;100.00;99129.75;4863159;29;20102;-80
2020/12/20 11:40:40;;;;;;;3.20;0.57;;;;;;;6.69;100.00;99138.63;4863082;29;20101;-80
2020/12/20 11:43:43;;;;;;;5.55;0.73;;;;;;;6.82;100.00;99147.50;4862093;29;20048;-79
2020/12/20 11:46:46;;;;;;;0.88;0.30;;;;;;;6.85;100.00;99139.03;4850106;29;20048;-78
2020/12/20 11:49:48;;;;;;;0.73;0.43;;;;;;;6.76;100.00;99138.28;4863860;29;20529;-82
2020/12/20 11:52:51;;;;;;;2.72;0.43;;;;;;;6.60;100.00;99147.72;4866383;29;20104;-82
2020/12/20 11:55:54;;;;;;;1.67;0.30;;;;;;;6.46;100.00;99148.38;4863982;29;20056;-80
2020/12/20 11:58:57;;;;;;;2.15;0.38;;;;;;;6.30;100.00;99150.72;4869468;29;20072;-79
2020/12/20 12:02:00;;;;;;;6.13;0.47;;;;;;;6.17;100.00;99152.88;4879103;29;20044;-80
2020/12/20 12:05:04;;;;;;;4.82;0.38;;;;;;;6.05;100.00;99152.59;4878658;29;20161;-80
2020/12/20 12:08:07;;;;;;;1.20;0.30;;;;;;;5.94;100.00;99152.28;4878335;29;20123;-81
2020/12/20 12:11:15;;;;;;;0.25;0.20;;;;;;;5.82;100.00;99150.44;4878318;29;20043;-80
2020/12/20 12:14:18;;;;;;;2.75;0.40;;;;;;;5.75;100.00;99161.78;4877255;29;20135;-79
2020/12/20 12:17:21;;;;;;;0.73;0.60;;;;;;;5.69;100.00;99163.63;4876726;29;20056;-80
2020/12/20 12:20:24;;;;;;;0.17;0.10;;;;;;;5.66;100.00;99170.06;4878040;29;20052;-79
2020/12/20 12:23:27;;;;;;;1.85;0.90;;;;;;;5.65;100.00;99171.25;4878704;29;20455;-80
2020/12/20 12:26:30;;;;;;;1.52;1.23;;;;;;;5.68;100.00;99167.59;4878460;29;20064;-80
2020/12/20 12:29:33;;;;;;;0.90;0.20;;;;;;;5.72;100.00;99168.22;4878274;29;20148;-79
2020/12/20 12:32:36;;;;;;;2.20;0.75;;;;;;;5.79;100.00;99165.16;4878738;29;20149;-79
2020/12/20 12:35:39;;;;;;;2.17;0.30;;;;;;;5.87;100.00;99169.16;4878471;29;20110;-79
2020/12/20 12:38:42;;;;;;;0.55;0.30;;;;;;;5.92;100.00;99170.56;4878234;29;20056;-78
2020/12/20 12:41:45;;;;;;;0.70;0.10;;;;;;;5.91;100.00;99169.78;4878365;29;20048;-80
2020/12/20 12:44:49;;;;;;;1.55;0.30;;;;;;;5.91;100.00;99169.03;4878616;29;20056;-80
2020/12/20 12:47:52;;;;;;;0.20;0.10;;;;;;;5.87;100.00;99174.69;4878003;29;20051;-80
2020/12/20 12:50:54;;;;;;;0.30;0.20;;;;;;;5.85;100.00;99188.19;4878150;29;20524;-80
2020/12/20 12:53:57;;;;;;;13.13;0.80;;;;;;;5.87;100.00;99185.75;4878503;29;20052;-82
2020/12/20 12:57:01;;;;;;;0.20;0.20;;;;;;;5.93;100.00;99189.41;4878249;29;20478;-78
2020/12/20 13:00:04;;;;;;;2.35;0.32;;;;;;;5.95;100.00;99186.22;4878540;29;20102;-77
2020/12/20 13:03:10;;;;;;;0.28;0.05;;;;;;;5.93;100.00;99194.94;4878297;29;20103;-79
2020/12/20 13:06:19;;;;;;;0.30;0.20;;;;;;;5.87;100.00;99191.25;4868559;29;20056;-79
2020/12/20 13:09:22;;;;;;;1.38;0.55;;;;;;;5.81;100.00;99190.31;4880180;29;20053;-79
2020/12/20 13:12:25;;;;;;;0.30;0.10;;;;;;;5.72;100.00;99173.72;4877965;29;20056;-79
2020/12/20 13:15:29;;;;;;;1.17;0.20;;;;;;;5.67;100.00;99163.31;4861162;29;20039;-79
2020/12/20 13:18:32;;;;;;;0.20;0.20;;;;;;;5.58;100.00;99163.28;4859511;29;20443;-78
2020/12/20 13:21:34;;;;;;;0.50;0.50;;;;;;;5.54;100.00;99176.50;4854588;29;20080;-79
2020/12/20 13:24:37;;;;;;;1.95;0.55;;;;;;;5.52;100.00;99169.88;4859944;29;20141;-79
2020/12/20 13:27:40;;;;;;;2.08;1.45;;;;;;;5.48;100.00;99175.53;4858966;29;20118;-79
2020/12/20 13:30:43;;;;;;;13.00;1.40;;;;;;;5.42;100.00;99173.84;4862907;29;20118;-79
2020/12/20 13:33:47;;;;;;;11.98;0.82;;;;;;;5.43;100.00;99178.91;4863273;29;20064;-75
2020/12/20 13:36:50;;;;;;;5.15;2.10;;;;;;;5.48;100.00;99178.28;4862188;29;20431;-75
2020/12/20 13:39:53;;;;;;;1.88;0.80;;;;;;;5.52;100.00;99176.19;4864904;29;20101;-77
2020/12/20 13:42:56;;;;;;;1.52;0.40;;;;;;;5.53;100.00;99166.66;4876131;29;20076;-78
2020/12/20 13:45:59;;;;;;;6.80;0.75;;;;;;;5.52;100.00;99167.91;4869524;29;20043;-78
2020/12/20 13:49:02;;;;;;;2.22;0.15;;;;;;;5.48;100.00;99167.25;4881385;29;20100;-77
2020/12/20 13:52:05;;;;;;;0.80;0.47;;;;;;;5.45;100.00;99176.47;4881108;29;20140;-77
2020/12/20 13:55:08;;;;;;;0.20;0.13;;;;;;;5.44;100.00;99171.38;4881031;29;20047;-77
2020/12/20 13:58:11;;;;;;;0.43;0.13;;;;;;;5.40;100.00;99171.53;4879224;29;20051;-77
2020/12/20 14:01:15;;;;;;;1.38;0.47;;;;;;;5.36;100.00;99168.94;4880952;29;20194;-77
2020/12/20 14:04:17;;;;;;;2.72;0.55;;;;;;;5.38;100.00;99182.28;4880738;29;20490;-77
2020/12/20 14:07:20;;;;;;;3.40;0.20;;;;;;;5.38;100.00;99180.28;4880798;29;20075;-77
2020/12/20 14:10:23;;;;;;;1.48;0.43;;;;;;;5.43;100.00;99184.44;4880706;29;20562;-77
2020/12/20 14:13:26;;;;;;;2.00;0.68;;;;;;;5.54;100.00;99198.59;4881061;29;20076;-78
2020/12/20 14:16:29;;;;;;;6.68;0.90;;;;;;;5.64;100.00;99199.34;4880462;29;20043;-77
2020/12/20 14:19:32;;;;;;;0.63;0.40;;;;;;;5.65;100.00;99200.91;4880630;29;20143;-77
2020/12/20 14:22:34;;;;;;;2.08;0.50;;;;;;;5.66;100.00;99202.41;4880359;29;20524;-77
2020/12/20 14:25:39;;;;;;;2.65;0.15;;;;;;;5.71;100.00;99197.06;4880490;29;20051;-77
2020/12/20 14:28:43;;;;;;;0.43;0.43;;;;;;;5.77;100.00;99200.75;4880288;29;20049;-77